Погода Уланбельна 2 недели

Жамбылская область, Казахстан

25 июля-07 августа
  • 25июля
    Сегодня
    +28°
    +41°
    Ясно и безоблачно
    ВремяПогодаТемператураВлажностьДавлениеВетер, м/сВероятность осадков
    02:00Ясно и безоблачно+28°C33 %730 мм2.7 м/с2 %
    05:00Ясно и безоблачно+25°C42 %730 мм1.8 м/с2 %
    08:00Ясно и безоблачно+30°C33 %731 мм1.6 м/с2 %
    11:00Ясно и безоблачно+37°C19 %731 мм2.9 м/с2 %
    14:00Ясно и безоблачно+40°C14 %731 мм3.7 м/с2 %
    17:00Ясно и безоблачно+41°C12 %730 мм4.2 м/с2 %
    20:00Практически безоблачно+37°C13 %730 мм3.1 м/с2 %
    23:00Ясно и безоблачно+32°C20 %730 мм2.2 м/с2 %
  • 26июля
    Пятница
    +23°
    +40°
    Практически безоблачно
    ВремяПогодаТемператураВлажностьДавлениеВетер, м/сВероятность осадков
    02:00Облачно с прояснениями+30°C24 %730 мм4.3 м/с2 %
    05:00Облачно с прояснениями+29°C24 %730 мм3.4 м/с2 %
    08:00Практически безоблачно+34°C17 %731 мм4.3 м/с2 %
    11:00Ясно и безоблачно+39°C13 %731 мм7.3 м/с2 %
    14:00Практически безоблачно+39°C18 %732 мм8.6 м/с2 %
    17:00Ясно и безоблачно+38°C20 %732 мм8.3 м/с1 %
    20:00Ясно и безоблачно+35°C18 %734 мм6.7 м/с2 %
    23:00Ясно и безоблачно+30°C19 %735 мм5.9 м/с2 %
  • 27июля
    Суббота
    +23°
    +37°
    Ясно и безоблачно
    ВремяПогодаТемператураВлажностьДавлениеВетер, м/сВероятность осадков
    02:00Ясно и безоблачно+26°C29 %735 мм3.7 м/с2 %
    05:00Ясно и безоблачно+24°C31 %736 мм3.3 м/с2 %
    08:00Ясно и безоблачно+28°C26 %738 мм3.2 м/с2 %
    11:00Ясно и безоблачно+33°C17 %737 мм3.3 м/с2 %
    14:00Ясно и безоблачно+35°C14 %737 мм2.7 м/с2 %
    17:00Ясно и безоблачно+36°C13 %736 мм2.6 м/с2 %
    20:00Ясно и безоблачно+33°C15 %737 мм3.6 м/с2 %
    23:00Ясно и безоблачно+29°C21 %737 мм4.7 м/с2 %
  • 28июля
    Воскресенье
    +22°
    +37°
    Ясно и безоблачно
    ВремяПогодаТемператураВлажностьДавлениеВетер, м/сВероятность осадков
    02:00Ясно и безоблачно+26°C24 %736 мм4.2 м/с2 %
    05:00Ясно и безоблачно+24°C26 %737 мм2.5 м/с2 %
    08:00Ясно и безоблачно+28°C19 %738 мм1.5 м/с2 %
    11:00Ясно и безоблачно+34°C15 %738 мм2.0 м/с2 %
    14:00Ясно и безоблачно+36°C12 %738 мм3.2 м/с2 %
    17:00Ясно и безоблачно+36°C14 %737 мм5.1 м/с2 %
    20:00Ясно и безоблачно+34°C16 %737 мм2.2 м/с2 %
    23:00Ясно и безоблачно+29°C18 %738 мм6.1 м/с2 %
  • 29июля
    Понедельник
    +22°
    +36°
    Облачно с прояснениями
    ВремяПогодаТемператураВлажностьДавлениеВетер, м/сВероятность осадков
    02:00Ясно и безоблачно+26°C19 %737 мм4.3 м/с2 %
    05:00Ясно и безоблачно+23°C24 %738 мм3.5 м/с2 %
    08:00Ясно и безоблачно+27°C20 %739 мм3.3 м/с2 %
    11:00Небольшая облачность+33°C14 %738 мм3.4 м/с2 %
    14:00Облачно с прояснениями+35°C12 %737 мм4.5 м/с2 %
    17:00Облачно с прояснениями+35°C10 %737 мм4.9 м/с2 %
    20:00Ясно и безоблачно+32°C14 %737 мм4.1 м/с2 %
    23:00Ясно и безоблачно+28°C21 %737 мм5.8 м/с2 %
Мы используем cookies
Соглашаюсь